Time;durP1;ratioP1;P1;durP2;ratioP2;P2;SDS_P1;SDS_P2;PMS_P1;PMS_P2;Temp;Humidity;BMP_temperature;BMP_pressure;BME280_temperature;BME280_humidity;BME280_pressure;Samples;Min_cycle;Max_cycle;Signal;HPM_P1;HPM_P2
2022/09/03 00:00:37;;;;;;;21.65;19.55;;;;;;;20.90;100.00;99114.63;5052402;28;20652;-53
2022/09/03 00:03:12;;;;;;;21.20;19.20;;;;;;;20.90;100.00;99119.06;5052703;28;20207;-54
2022/09/03 00:05:46;;;;;;;20.77;18.55;;;;;;;20.85;100.00;99119.44;5052266;28;20663;-53
2022/09/03 00:08:20;;;;;;;19.85;17.98;;;;;;;20.84;100.00;99117.75;5052435;28;20231;-53
2022/09/03 00:10:52;;;;;;;19.83;17.77;;;;;;;20.84;100.00;99117.75;5052296;28;20284;-54
2022/09/03 00:13:24;;;;;;;21.35;18.90;;;;;;;20.91;100.00;99124.22;5052241;28;20196;-53
2022/09/03 00:15:53;;;;;;;22.58;20.27;;;;;;;20.91;100.00;99121.59;5050754;28;20598;-53
2022/09/03 00:18:23;;;;;;;21.80;19.55;;;;;;;20.89;100.00;99126.13;5052136;28;20189;-53
2022/09/03 00:20:58;;;;;;;30.00;19.65;;;;;;;20.84;100.00;99117.75;5051981;28;20628;-54
2022/09/03 00:23:27;;;;;;;22.83;20.60;;;;;;;20.85;100.00;99130.00;5051953;28;20196;-53
2022/09/03 00:26:00;;;;;;;24.38;21.67;;;;;;;20.86;100.00;99134.31;5052097;28;20684;-60
2022/09/03 00:28:30;;;;;;;25.35;22.73;;;;;;;20.82;100.00;99121.47;5051623;28;20232;-53
2022/09/03 00:31:06;;;;;;;32.55;29.02;;;;;;;20.89;100.00;99127.94;5051984;28;20196;-59
2022/09/03 00:33:34;;;;;;;23.65;21.17;;;;;;;20.90;100.00;99127.81;5051935;28;20200;-54
2022/09/03 00:36:11;;;;;;;21.40;18.50;;;;;;;20.86;100.00;99122.91;5052322;28;20555;-54
2022/09/03 00:38:38;;;;;;;26.40;21.00;;;;;;;20.78;100.00;99112.94;5051533;28;20223;-52
2022/09/03 00:41:15;;;;;;;23.65;20.73;;;;;;;20.85;100.00;99130.00;5052046;28;20196;-53
2022/09/03 00:44:09;;;;;;;24.90;21.17;;;;;;;20.78;100.00;99120.84;5051851;28;20664;-53
2022/09/03 00:46:42;;;;;;;22.98;19.13;;;;;;;20.70;100.00;99119.75;5051612;28;20228;-61
2022/09/03 00:49:32;;;;;;;24.83;20.88;;;;;;;20.67;100.00;99112.91;5051820;28;20210;-60
2022/09/03 00:52:05;;;;;;;28.85;20.48;;;;;;;20.63;100.00;99108.84;5051378;28;20213;-60
2022/09/03 00:54:43;;;;;;;23.60;21.10;;;;;;;20.61;100.00;99113.41;5051204;28;20228;-60
2022/09/03 00:57:24;;;;;;;28.35;20.30;;;;;;;20.61;100.00;99111.59;5052146;28;20566;-59
2022/09/03 00:59:59;;;;;;;22.70;20.17;;;;;;;20.62;100.00;99112.44;5052454;28;20211;-53
2022/09/03 01:02:37;;;;;;;22.17;19.80;;;;;;;20.47;100.00;99117.06;5047824;28;20200;-53
2022/09/03 01:05:10;;;;;;;22.50;19.98;;;;;;;20.49;100.00;99127.50;5041978;28;20197;-52
2022/09/03 01:07:47;;;;;;;23.85;20.25;;;;;;;20.48;100.00;99120.56;5041737;28;20212;-60
2022/09/03 01:10:31;;;;;;;22.00;19.52;;;;;;;20.45;100.00;99124.25;5042512;28;20200;-59
2022/09/03 01:13:04;;;;;;;23.35;20.77;;;;;;;20.46;100.00;99122.47;5048040;28;20190;-53
2022/09/03 01:15:39;;;;;;;23.90;20.48;;;;;;;20.48;100.00;99128.47;5043894;28;20687;-54
2022/09/03 01:18:13;;;;;;;22.23;20.00;;;;;;;20.46;100.00;99127.75;5039108;28;20188;-54
2022/09/03 01:20:55;;;;;;;22.23;19.88;;;;;;;20.22;100.00;99090.84;5036969;28;20283;-54
2022/09/03 01:24:06;;;;;;;21.55;19.30;;;;;;;20.36;100.00;99118.84;5051140;28;20665;-54
2022/09/03 01:26:49;;;;;;;20.52;18.27;;;;;;;20.36;100.00;99118.84;5050755;28;20200;-60
2022/09/03 01:29:24;;;;;;;21.45;19.13;;;;;;;20.32;100.00;99115.56;5051150;28;20636;-60
2022/09/03 01:32:02;;;;;;;21.48;19.33;;;;;;;20.34;100.00;99116.28;5051072;28;20207;-59
2022/09/03 01:34:45;;;;;;;22.20;19.80;;;;;;;20.34;100.00;99118.91;5050639;28;20231;-59
2022/09/03 01:37:19;;;;;;;24.70;19.92;;;;;;;20.29;100.00;99116.66;5050211;28;20193;-59
2022/09/03 01:40:02;;;;;;;22.23;19.45;;;;;;;20.30;100.00;99122.75;5050784;28;20222;-53
2022/09/03 01:42:37;;;;;;;20.98;18.77;;;;;;;20.29;100.00;99121.91;5050406;28;20203;-54
2022/09/03 01:45:28;;;;;;;20.77;18.73;;;;;;;20.32;100.00;99118.19;5051256;28;20200;-59
2022/09/03 01:48:11;;;;;;;22.20;18.90;;;;;;;20.34;100.00;99121.56;5051283;28;20224;-58
2022/09/03 01:50:48;;;;;;;19.40;17.52;;;;;;;20.34;100.00;99115.44;5050538;28;20556;-52
2022/09/03 01:53:32;;;;;;;20.38;18.30;;;;;;;20.37;100.00;99120.53;5050435;28;20206;-54
2022/09/03 01:56:15;;;;;;;19.60;17.33;;;;;;;20.37;100.00;99115.25;5050084;28;20240;-59
2022/09/03 01:58:49;;;;;;;19.75;17.58;;;;;;;20.35;100.00;99119.75;5050989;28;20583;-60
2022/09/03 02:01:23;;;;;;;19.55;17.60;;;;;;;20.40;100.00;99115.03;5050801;28;20192;-59
2022/09/03 02:03:52;;;;;;;21.73;17.42;;;;;;;20.40;100.00;99107.97;5050512;28;20199;-58
2022/09/03 02:06:20;;;;;;;18.35;16.65;;;;;;;20.41;100.00;99114.06;5050893;28;20204;-59
2022/09/03 02:08:47;;;;;;;18.70;16.98;;;;;;;20.39;100.00;99111.56;5050682;28;20700;-59
2022/09/03 02:11:14;;;;;;;17.65;15.95;;;;;;;20.32;100.00;99107.66;5050116;28;20196;-60
2022/09/03 02:13:43;;;;;;;19.27;17.30;;;;;;;20.30;100.00;99117.50;5050297;28;20281;-60
2022/09/03 02:16:14;;;;;;;18.42;16.45;;;;;;;20.36;100.00;99126.75;5050149;28;20205;-59
2022/09/03 02:18:48;;;;;;;18.45;16.75;;;;;;;20.34;100.00;99126.00;5049907;28;20203;-59
2022/09/03 02:21:20;;;;;;;18.30;16.50;;;;;;;20.31;100.00;99129.72;5050183;28;20203;-59
2022/09/03 02:23:49;;;;;;;23.23;16.17;;;;;;;20.37;100.00;99134.53;5049817;28;20211;-58
2022/09/03 02:26:20;;;;;;;26.52;16.50;;;;;;;20.34;100.00;99133.91;5049758;28;20204;-58
2022/09/03 02:28:47;;;;;;;20.70;16.27;;;;;;;20.30;100.00;99135.94;5049656;28;20239;-59
2022/09/03 02:31:13;;;;;;;18.02;16.13;;;;;;;20.33;100.00;99143.59;5049840;28;20193;-60
2022/09/03 02:33:45;;;;;;;16.67;15.00;;;;;;;20.36;100.00;99143.41;5049799;28;20201;-59
2022/09/03 02:36:14;;;;;;;19.65;16.23;;;;;;;20.38;100.00;99144.13;5049816;28;20284;-60
2022/09/03 02:38:42;;;;;;;17.58;15.85;;;;;;;20.35;100.00;99152.28;5049657;28;20199;-60
2022/09/03 02:41:12;;;;;;;19.33;15.18;;;;;;;20.34;100.00;99147.06;5049641;28;20211;-60
2022/09/03 02:43:43;;;;;;;17.45;15.48;;;;;;;20.37;100.00;99150.38;5049272;28;20200;-59
2022/09/03 02:46:17;;;;;;;16.85;14.93;;;;;;;20.34;100.00;99152.34;5049802;28;20513;-59
2022/09/03 02:48:45;;;;;;;16.48;14.95;;;;;;;20.25;100.00;99152.09;5048865;28;20232;-60
2022/09/03 02:51:12;;;;;;;16.85;15.07;;;;;;;20.35;100.00;99148.75;5049526;28;20203;-61
2022/09/03 02:53:39;;;;;;;16.65;14.90;;;;;;;20.31;100.00;99156.06;5049351;28;20196;-60
2022/09/03 02:56:06;;;;;;;16.13;13.93;;;;;;;20.31;100.00;99151.63;5049443;28;20258;-60
2022/09/03 02:58:34;;;;;;;15.85;14.18;;;;;;;20.35;100.00;99149.63;5049349;28;20283;-60
2022/09/03 03:01:00;;;;;;;15.45;13.85;;;;;;;20.37;100.00;99155.63;5049255;28;20291;-53
2022/09/03 03:03:28;;;;;;;16.27;14.57;;;;;;;20.24;100.00;99133.75;5049237;28;20211;-54
2022/09/03 03:05:58;;;;;;;15.27;13.77;;;;;;;20.32;100.00;99157.72;5049428;28;20578;-53
2022/09/03 03:08:27;;;;;;;15.75;14.20;;;;;;;20.33;100.00;99151.50;5049167;28;20230;-54
2022/09/03 03:10:57;;;;;;;15.57;14.00;;;;;;;20.29;100.00;99150.91;5049131;28;20595;-54
2022/09/03 03:13:24;;;;;;;14.70;13.45;;;;;;;20.33;100.00;99151.50;5049501;28;20764;-53
2022/09/03 03:15:51;;;;;;;15.65;14.35;;;;;;;20.34;100.00;99149.72;5049203;28;20202;-53
2022/09/03 03:18:19;;;;;;;15.10;13.63;;;;;;;20.33;100.00;99153.28;5049434;28;20205;-52
2022/09/03 03:20:47;;;;;;;16.23;14.35;;;;;;;20.27;100.00;99149.34;5049140;28;20204;-54
2022/09/03 03:23:15;;;;;;;15.75;14.10;;;;;;;20.19;100.00;99147.28;5049112;28;20200;-52
2022/09/03 03:25:42;;;;;;;16.25;14.65;;;;;;;20.08;100.00;99128.78;5048991;28;20207;-52
2022/09/03 03:28:09;;;;;;;16.75;14.05;;;;;;;20.18;100.00;99148.22;5048981;28;20234;-52
2022/09/03 03:30:38;;;;;;;17.85;14.13;;;;;;;20.23;100.00;99147.88;5048967;28;20199;-53
2022/09/03 03:33:06;;;;;;;16.23;14.63;;;;;;;20.19;100.00;99155.19;5049082;28;20693;-52
2022/09/03 03:35:33;;;;;;;16.27;14.60;;;;;;;20.20;100.00;99150.75;5048927;28;20208;-52
2022/09/03 03:38:00;;;;;;;15.95;14.45;;;;;;;20.16;100.00;99150.13;5048728;28;20719;-52
2022/09/03 03:40:29;;;;;;;16.42;14.45;;;;;;;20.10;100.00;99145.31;5049138;28;20665;-52
2022/09/03 03:42:57;;;;;;;16.40;14.05;;;;;;;20.06;100.00;99138.59;5048929;28;20683;-53
2022/09/03 03:45:24;;;;;;;15.45;14.07;;;;;;;20.07;100.00;99145.56;5049006;28;20436;-53
2022/09/03 03:47:51;;;;;;;15.68;14.18;;;;;;;20.09;100.00;99151.53;5048836;28;20242;-61
2022/09/03 03:50:19;;;;;;;15.93;13.85;;;;;;;20.07;100.00;99153.44;5049043;28;20197;-62
2022/09/03 03:52:47;;;;;;;14.95;13.52;;;;;;;20.02;100.00;99155.56;5048703;28;20222;-61
2022/09/03 03:55:14;;;;;;;15.85;13.45;;;;;;;20.05;100.00;99147.44;5048891;28;20236;-60
2022/09/03 03:57:43;;;;;;;13.95;12.52;;;;;;;20.03;100.00;99130.91;5048848;28;20207;-61
2022/09/03 04:00:10;;;;;;;15.68;14.10;;;;;;;20.18;100.00;99147.38;5051594;28;20693;-61
2022/09/03 04:02:37;;;;;;;15.23;13.68;;;;;;;20.15;100.00;99153.72;5052456;28;20232;-61
2022/09/03 04:05:05;;;;;;;19.27;13.25;;;;;;;20.13;100.00;99157.41;5060331;28;20210;-61
2022/09/03 04:07:32;;;;;;;14.83;13.27;;;;;;;20.11;100.00;99154.88;5056655;28;20697;-60
2022/09/03 04:09:59;;;;;;;18.10;13.70;;;;;;;20.21;100.00;99150.63;5052568;28;20802;-62
2022/09/03 04:12:27;;;;;;;15.23;13.90;;;;;;;20.25;100.00;99156.50;5052537;28;20200;-52
2022/09/03 04:14:55;;;;;;;16.70;13.95;;;;;;;20.28;100.00;99162.41;5052163;28;20197;-52
2022/09/03 04:17:22;;;;;;;14.38;12.82;;;;;;;20.34;100.00;99160.25;5051859;28;20197;-53
2022/09/03 04:19:49;;;;;;;15.63;13.27;;;;;;;20.36;100.00;99169.78;5051636;28;20197;-52
2022/09/03 04:22:17;;;;;;;13.65;12.35;;;;;;;20.44;100.00;99172.66;5051551;28;20204;-53
2022/09/03 04:24:44;;;;;;;14.35;12.85;;;;;;;20.47;100.00;99166.31;5050756;28;20208;-53
2022/09/03 04:27:11;;;;;;;15.45;13.38;;;;;;;20.53;100.00;99168.53;5051722;28;20193;-53
2022/09/03 04:29:38;;;;;;;12.95;11.65;;;;;;;20.54;100.00;99160.47;5051815;28;20225;-51
2022/09/03 04:34:51;;;;;;;12.88;11.00;;;;;;;21.02;100.00;99170.88;5051956;28;20250;-52
2022/09/03 04:37:19;;;;;;;11.38;10.32;;;;;;;21.39;100.00;99174.19;5051939;28;20201;-52
2022/09/03 04:39:46;;;;;;;12.95;10.52;;;;;;;21.63;100.00;99172.25;5051673;28;20189;-53
2022/09/03 04:42:13;;;;;;;10.10;9.15;;;;;;;21.90;100.00;99176.25;5051748;28;20727;-53
2022/09/03 04:44:40;;;;;;;11.73;9.05;;;;;;;22.36;100.00;99186.59;5046293;28;20577;-54
2022/09/03 04:47:08;;;;;;;10.20;8.50;;;;;;;23.02;100.00;99190.75;5031571;28;20202;-54
2022/09/03 04:49:35;;;;;;;8.50;7.80;;;;;;;23.93;100.00;99194.34;5031485;28;20228;-54
2022/09/03 04:52:02;;;;;;;9.80;7.32;;;;;;;24.71;100.00;99185.47;5031753;28;20665;-53
2022/09/03 04:54:29;;;;;;;7.78;7.13;;;;;;;25.63;100.00;99195.28;5031457;28;20239;-54
2022/09/03 04:56:56;;;;;;;7.72;7.22;;;;;;;26.25;98.44;99206.13;5036602;28;20193;-54
2022/09/03 04:59:23;;;;;;;7.10;6.63;;;;;;;26.93;95.09;99217.09;5045002;28;20192;-60
2022/09/03 05:01:51;;;;;;;7.13;6.60;;;;;;;27.44;93.55;99210.91;5050117;28;20201;-60
2022/09/03 05:04:19;;;;;;;7.05;6.35;;;;;;;27.97;90.38;99217.84;5050128;28;20196;-60
2022/09/03 05:06:46;;;;;;;6.70;5.75;;;;;;;28.56;86.11;99214.13;5051070;28;20211;-60
2022/09/03 05:09:13;;;;;;;6.45;5.85;;;;;;;28.72;84.46;99221.31;5051210;28;20239;-59
2022/09/03 05:11:40;;;;;;;6.30;5.70;;;;;;;28.39;85.63;99217.78;5050180;28;20210;-61
2022/09/03 05:14:10;;;;;;;6.85;6.35;;;;;;;28.53;84.94;99235.84;5051429;28;20577;-53
2022/09/03 05:16:37;;;;;;;6.03;5.57;;;;;;;28.80;81.97;99227.50;5051243;28;20653;-60
2022/09/03 05:19:06;;;;;;;5.80;5.50;;;;;;;28.83;79.00;99219.19;5050588;28;20294;-60
2022/09/03 05:21:36;;;;;;;6.45;5.18;;;;;;;29.37;77.10;99229.28;5032649;28;20641;-60
2022/09/03 05:24:04;;;;;;;6.22;5.72;;;;;;;29.64;75.86;99236.09;5031366;28;20198;-59
2022/09/03 05:26:32;;;;;;;8.45;5.72;;;;;;;30.00;74.25;99241.84;5035438;28;20197;-61
2022/09/03 05:29:01;;;;;;;6.15;5.68;;;;;;;30.34;72.73;99247.66;5039204;28;20224;-54
2022/09/03 05:31:30;;;;;;;7.00;5.72;;;;;;;30.59;71.39;99249.19;5041471;28;20193;-54
2022/09/03 05:33:59;;;;;;;5.53;4.97;;;;;;;30.99;70.19;99257.91;5036703;28;20669;-53
2022/09/03 05:36:28;;;;;;;5.72;5.35;;;;;;;31.55;68.00;99255.72;5039224;28;20759;-53
2022/09/03 05:38:58;;;;;;;6.25;5.35;;;;;;;31.80;66.87;99258.97;5040725;28;20283;-54
2022/09/03 05:41:26;;;;;;;6.22;5.43;;;;;;;32.00;65.38;99252.00;5040910;28;20203;-53
2022/09/03 05:43:55;;;;;;;6.03;5.40;;;;;;;32.12;64.94;99258.56;5039423;28;20271;-53
2022/09/03 05:46:29;;;;;;;5.47;4.95;;;;;;;32.30;64.12;99253.63;5037439;28;20594;-54
2022/09/03 05:48:57;;;;;;;6.22;5.05;;;;;;;32.91;61.97;99264.81;5037705;28;20217;-53
2022/09/03 05:51:24;;;;;;;4.68;4.32;;;;;;;33.45;59.98;99261.53;5047741;28;20254;-51
2022/09/03 05:53:52;;;;;;;5.15;4.85;;;;;;;33.11;60.02;99271.19;5050972;28;20645;-53
2022/09/03 05:56:21;;;;;;;5.70;5.18;;;;;;;33.32;59.77;99272.19;5044593;28;20541;-59
2022/09/03 05:58:49;;;;;;;6.68;5.47;;;;;;;33.37;59.24;99275.97;5038187;28;20268;-58
2022/09/03 06:01:18;;;;;;;5.95;5.47;;;;;;;33.44;59.02;99270.63;5037291;28;20193;-59
2022/09/03 06:03:47;;;;;;;6.03;5.50;;;;;;;33.59;58.98;99257.91;5035585;28;20288;-58
2022/09/03 06:06:15;;;;;;;6.15;5.47;;;;;;;33.94;58.46;99266.81;5040295;28;20193;-54
2022/09/03 06:08:43;;;;;;;6.07;5.55;;;;;;;34.34;56.28;99270.50;5037345;28;20240;-52
2022/09/03 06:11:11;;;;;;;5.97;5.57;;;;;;;34.22;56.21;99269.41;5047132;28;20208;-60
2022/09/03 06:13:39;;;;;;;6.07;5.60;;;;;;;34.22;55.97;99275.63;5050186;28;20196;-61
2022/09/03 06:16:07;;;;;;;5.53;5.05;;;;;;;34.41;56.89;99275.94;5050081;28;20199;-59
2022/09/03 06:18:34;;;;;;;6.40;5.93;;;;;;;34.98;54.34;99278.13;5049902;28;20204;-60
2022/09/03 06:21:03;;;;;;;6.68;5.72;;;;;;;35.37;53.29;99276.47;5050256;28;20200;-61
2022/09/03 06:23:31;;;;;;;7.07;6.38;;;;;;;35.58;52.79;99276.22;5050056;28;20740;-60
2022/09/03 06:26:03;;;;;;;6.00;5.60;;;;;;;35.72;50.77;99279.72;5050472;28;20203;-60
2022/09/03 06:28:31;;;;;;;6.68;5.72;;;;;;;35.47;53.06;99290.38;5049953;28;20196;-60
2022/09/03 06:31:01;;;;;;;6.25;5.85;;;;;;;35.35;52.04;99283.94;5049588;28;20250;-61
2022/09/03 06:33:29;;;;;;;6.30;5.90;;;;;;;35.02;52.56;99275.81;5049889;28;20235;-62
2022/09/03 06:35:59;;;;;;;6.25;5.85;;;;;;;35.70;51.46;99274.53;5048288;28;20196;-60
2022/09/03 06:38:30;;;;;;;6.90;6.28;;;;;;;36.46;49.96;99276.56;5041080;28;20602;-60
2022/09/03 06:41:00;;;;;;;7.30;6.63;;;;;;;36.84;48.41;99276.53;5040352;28;20200;-60
2022/09/03 06:43:28;;;;;;;6.82;6.15;;;;;;;36.59;48.75;99274.59;5039841;28;20231;-61
2022/09/03 06:45:57;;;;;;;6.03;5.57;;;;;;;35.35;50.88;99286.63;5039754;28;20283;-61
2022/09/03 06:48:26;;;;;;;7.32;6.63;;;;;;;34.06;54.36;99275.16;5039735;28;20669;-61
2022/09/03 06:50:57;;;;;;;8.80;6.10;;;;;;;33.21;56.22;99276.22;5037147;28;20291;-60
2022/09/03 06:53:26;;;;;;;7.40;6.82;;;;;;;32.37;58.99;99273.38;5039545;28;20188;-60
2022/09/03 06:55:54;;;;;;;8.35;7.07;;;;;;;31.34;62.26;99269.84;5041414;28;20229;-61
2022/09/03 06:58:22;;;;;;;7.63;6.63;;;;;;;30.71;64.84;99259.47;5049459;28;20235;-55
2022/09/03 07:00:51;;;;;;;8.50;7.15;;;;;;;30.50;66.25;99268.13;5049324;28;20222;-55
2022/09/03 07:03:18;;;;;;;7.45;6.70;;;;;;;32.00;63.47;99270.81;5049156;28;20311;-55
2022/09/03 07:05:47;;;;;;;8.43;7.72;;;;;;;33.97;57.57;99269.13;5049328;28;20571;-56
2022/09/03 07:08:14;;;;;;;9.60;8.73;;;;;;;35.23;53.45;99281.00;5047451;28;20200;-57
2022/09/03 07:10:42;;;;;;;7.97;7.25;;;;;;;36.01;51.02;99276.53;5049109;28;20228;-56
2022/09/03 07:13:09;;;;;;;8.40;7.00;;;;;;;36.42;49.32;99273.47;5049242;28;20250;-57
2022/09/03 07:15:36;;;;;;;7.68;7.10;;;;;;;37.25;48.11;99284.16;5039426;28;20197;-57
2022/09/03 07:18:03;;;;;;;10.60;8.13;;;;;;;37.78;47.38;99296.16;5029482;28;20649;-55
2022/09/03 07:20:30;;;;;;;7.88;6.40;;;;;;;37.55;46.24;99295.13;5029621;28;20685;-56
2022/09/03 07:22:58;;;;;;;7.70;7.00;;;;;;;37.68;45.70;99289.59;5029694;28;20661;-56
2022/09/03 07:25:26;;;;;;;8.88;8.15;;;;;;;38.48;43.70;99295.72;5029772;28;20282;-55
2022/09/03 07:27:53;;;;;;;7.13;6.63;;;;;;;38.31;43.20;99295.53;5029391;28;20208;-56
2022/09/03 07:30:20;;;;;;;10.13;9.15;;;;;;;38.20;44.29;99298.19;5032207;28;20230;-56
2022/09/03 07:32:50;;;;;;;7.20;6.68;;;;;;;38.32;43.18;99304.50;5034499;28;20238;-57
2022/09/03 07:35:18;;;;;;;11.02;10.00;;;;;;;38.03;43.98;99301.50;5033208;28;20585;-60
2022/09/03 07:37:45;;;;;;;7.57;6.93;;;;;;;38.62;43.45;99313.47;5034492;28;20205;-60
2022/09/03 07:40:16;;;;;;;7.93;7.20;;;;;;;38.49;42.33;99309.03;5034361;28;20279;-61
2022/09/03 07:42:43;;;;;;;6.68;6.07;;;;;;;38.80;43.24;99302.59;5034335;28;20196;-61
2022/09/03 07:45:11;;;;;;;8.80;8.02;;;;;;;39.60;40.83;99310.28;5046531;28;20200;-61
2022/09/03 07:47:39;;;;;;;6.32;5.80;;;;;;;39.49;39.64;99322.81;5048618;28;20200;-61
2022/09/03 07:50:07;;;;;;;4.82;4.55;;;;;;;40.02;38.06;99319.09;5048546;28;20219;-62
2022/09/03 07:52:33;;;;;;;4.88;4.57;;;;;;;40.75;36.08;99318.41;5050329;28;20202;-61
2022/09/03 07:55:01;;;;;;;13.90;12.90;;;;;;;41.05;35.54;99311.84;5052395;28;20727;-62
2022/09/03 07:57:30;;;;;;;7.30;6.57;;;;;;;41.15;34.24;99317.50;5045185;28;20668;-61
2022/09/03 07:59:57;;;;;;;5.90;4.90;;;;;;;40.87;36.20;99316.44;5044847;28;20189;-61
2022/09/03 08:02:24;;;;;;;5.70;5.40;;;;;;;41.85;33.37;99316.94;5046028;28;20198;-61
2022/09/03 08:04:51;;;;;;;5.18;4.78;;;;;;;42.25;32.55;99317.44;5042544;28;20314;-57
2022/09/03 08:07:18;;;;;;;6.30;5.55;;;;;;;42.48;32.38;99312.81;5039368;28;20196;-62
2022/09/03 08:09:45;;;;;;;5.20;4.90;;;;;;;41.80;33.86;99308.66;5030942;28;20315;-56
2022/09/03 08:12:12;;;;;;;5.60;5.30;;;;;;;42.10;33.36;99305.56;5031878;28;20203;-62
2022/09/03 08:14:40;;;;;;;5.32;5.03;;;;;;;42.13;32.99;99318.66;5031987;28;20197;-63
2022/09/03 08:17:07;;;;;;;5.13;4.75;;;;;;;42.81;32.65;99311.81;5031979;28;20586;-63
2022/09/03 08:19:34;;;;;;;6.88;6.28;;;;;;;42.45;32.00;99300.50;5032053;28;20203;-56
2022/09/03 08:22:01;;;;;;;5.10;4.72;;;;;;;41.26;34.05;99298.34;5032205;28;20260;-57
2022/09/03 08:24:28;;;;;;;7.72;5.03;;;;;;;40.82;34.93;99291.88;5032293;28;20687;-56
2022/09/03 08:26:55;;;;;;;5.13;4.82;;;;;;;41.47;34.46;99294.00;5031844;28;20292;-57
2022/09/03 08:29:22;;;;;;;6.07;5.55;;;;;;;41.66;34.19;99289.94;5032061;28;20579;-56
2022/09/03 08:31:50;;;;;;;7.97;7.20;;;;;;;41.99;33.56;99304.59;5031749;28;20229;-56
2022/09/03 08:34:17;;;;;;;6.47;5.97;;;;;;;42.24;31.90;99296.69;5031985;28;20203;-56
2022/09/03 08:36:45;;;;;;;6.68;6.03;;;;;;;41.69;33.06;99289.44;5031808;28;20283;-56
2022/09/03 08:39:12;;;;;;;5.53;5.13;;;;;;;41.24;33.58;99295.03;5031614;28;20244;-57
2022/09/03 08:41:49;;;;;;;5.90;5.53;;;;;;;41.98;32.58;99292.06;5032633;28;20200;-56
2022/09/03 08:44:25;;;;;;;6.47;6.15;;;;;;;41.80;32.81;99286.84;5031668;28;20196;-56
2022/09/03 08:46:58;;;;;;;5.60;5.30;;;;;;;42.23;32.60;99286.88;5030521;28;20224;-56
2022/09/03 08:49:31;;;;;;;5.80;5.35;;;;;;;41.94;33.48;99291.69;5031728;28;20225;-56
2022/09/03 08:52:01;;;;;;;6.57;6.22;;;;;;;41.71;33.06;99288.38;5031787;28;20205;-55
2022/09/03 08:54:30;;;;;;;6.65;6.20;;;;;;;42.08;32.70;99289.44;5031562;28;20236;-55
2022/09/03 08:57:01;;;;;;;8.68;6.53;;;;;;;42.23;32.45;99280.59;5031474;28;20700;-56
2022/09/03 08:59:30;;;;;;;6.38;5.93;;;;;;;41.76;32.13;99269.38;5031438;28;20280;-63
2022/09/03 09:02:11;;;;;;;6.93;6.28;;;;;;;41.87;31.98;99277.44;5031340;28;20215;-56
2022/09/03 09:04:53;;;;;;;7.78;7.35;;;;;;;41.98;32.31;99272.97;5031304;28;20197;-62
2022/09/03 09:07:26;;;;;;;7.57;6.95;;;;;;;41.02;32.92;99263.31;5031798;28;20211;-63
2022/09/03 09:10:00;;;;;;;6.65;6.05;;;;;;;41.68;32.14;99274.16;5031295;28;20227;-63
2022/09/03 09:12:39;;;;;;;7.07;6.63;;;;;;;41.46;32.72;99280.63;5031422;28;20193;-63
2022/09/03 09:15:11;;;;;;;6.55;6.10;;;;;;;40.26;34.33;99271.75;5031351;28;20205;-63
2022/09/03 09:18:03;;;;;;;7.50;6.70;;;;;;;38.70;38.00;99274.38;5031000;28;20678;-62
2022/09/03 09:20:40;;;;;;;6.63;6.00;;;;;;;38.50;37.54;99272.72;5031132;28;20201;-63
2022/09/03 09:23:10;;;;;;;7.30;6.70;;;;;;;38.80;37.87;99271.91;5031255;28;20200;-64
2022/09/03 09:25:44;;;;;;;6.15;5.72;;;;;;;38.86;37.79;99271.78;5031035;28;20284;-63
2022/09/03 09:28:17;;;;;;;7.43;6.80;;;;;;;39.32;37.29;99264.78;5030849;28;20206;-62
2022/09/03 09:30:46;;;;;;;7.13;6.50;;;;;;;39.17;37.16;99267.13;5030749;28;20218;-63
2022/09/03 09:33:14;;;;;;;6.50;5.97;;;;;;;39.71;35.74;99273.28;5030672;28;20200;-56
2022/09/03 09:35:42;;;;;;;6.55;6.15;;;;;;;40.57;34.30;99273.16;5034514;28;20228;-57
2022/09/03 09:38:09;;;;;;;7.38;6.68;;;;;;;40.16;34.74;99268.84;5029620;28;20691;-57
2022/09/03 09:40:38;;;;;;;6.28;5.68;;;;;;;40.41;34.46;99273.13;5030720;28;20201;-55
2022/09/03 09:43:11;;;;;;;6.82;6.32;;;;;;;40.94;33.55;99272.75;5029989;28;20200;-56
2022/09/03 09:45:40;;;;;;;6.85;6.35;;;;;;;39.86;35.25;99265.47;5030680;28;20203;-56
2022/09/03 09:48:18;;;;;;;6.47;6.07;;;;;;;38.29;37.58;99264.28;5033184;28;20640;-54
2022/09/03 09:50:45;;;;;;;15.93;14.45;;;;;;;37.76;39.28;99259.50;5041879;28;20715;-55
2022/09/03 09:53:16;;;;;;;7.47;6.75;;;;;;;38.01;39.23;99262.13;5050027;28;20692;-55
2022/09/03 09:55:54;;;;;;;10.50;9.70;;;;;;;38.20;37.76;99266.47;5049674;28;20313;-56
2022/09/03 09:58:22;;;;;;;11.80;10.68;;;;;;;37.41;39.30;99256.50;5049021;28;20580;-55
2022/09/03 10:01:01;;;;;;;5.88;5.57;;;;;;;36.54;41.52;99249.28;5044645;28;20287;-56
2022/09/03 10:03:33;;;;;;;12.77;11.88;;;;;;;35.54;44.40;99254.25;5029212;28;20196;-56
2022/09/03 10:08:48;;;;;;;7.75;7.25;;;;;;;33.96;48.25;99250.47;5007268;28;20607;-56
2022/09/03 10:11:17;;;;;;;12.07;10.88;;;;;;;32.89;51.70;99239.97;5029898;28;20227;-56
2022/09/03 10:13:48;;;;;;;7.38;6.43;;;;;;;32.30;53.10;99209.81;5029928;28;20208;-55
2022/09/03 10:16:25;;;;;;;7.10;6.40;;;;;;;32.13;54.29;99235.22;5029985;28;20208;-56
2022/09/03 10:19:00;;;;;;;8.25;7.15;;;;;;;31.88;55.03;99229.34;5029823;28;20232;-55
2022/09/03 10:21:33;;;;;;;8.77;7.68;;;;;;;31.81;55.85;99221.22;5028953;28;20193;-56
2022/09/03 10:24:14;;;;;;;7.80;7.10;;;;;;;31.79;55.47;99222.44;5029662;28;20205;-55
2022/09/03 10:26:43;;;;;;;8.10;7.57;;;;;;;31.60;56.73;99210.41;5029813;28;20205;-55
2022/09/03 10:29:10;;;;;;;7.35;6.85;;;;;;;31.34;58.27;99218.91;5029894;28;20197;-55
2022/09/03 10:31:52;;;;;;;7.50;7.07;;;;;;;31.45;57.96;99217.59;5029557;28;20223;-56
2022/09/03 10:34:29;;;;;;;7.57;7.07;;;;;;;31.47;58.09;99220.94;5029935;28;20749;-56
2022/09/03 10:37:03;;;;;;;7.80;7.30;;;;;;;31.45;58.22;99215.75;5029476;28;20193;-54
2022/09/03 10:39:44;;;;;;;9.68;8.65;;;;;;;31.47;58.40;99220.94;5029864;28;20220;-55
2022/09/03 10:42:20;;;;;;;7.35;6.95;;;;;;;31.32;58.54;99223.59;5029682;28;20212;-55
2022/09/03 10:45:02;;;;;;;7.40;6.80;;;;;;;31.19;58.25;99213.50;5029639;28;20201;-56
2022/09/03 10:47:44;;;;;;;7.22;6.82;;;;;;;31.33;58.73;99209.19;5029587;28;20288;-55
2022/09/03 10:50:16;;;;;;;7.68;6.93;;;;;;;31.46;58.32;99209.38;5029576;28;20231;-55
2022/09/03 10:53:06;;;;;;;7.72;7.13;;;;;;;31.35;57.20;99220.56;5029655;28;20202;-60
2022/09/03 10:55:46;;;;;;;7.05;6.63;;;;;;;31.23;56.49;99216.66;5029308;28;20236;-61
2022/09/03 10:58:29;;;;;;;8.32;7.43;;;;;;;31.14;56.79;99225.81;5029966;28;20197;-60
2022/09/03 11:01:03;;;;;;;7.80;7.25;;;;;;;30.91;58.96;99226.66;5029725;28;20219;-63
2022/09/03 11:03:48;;;;;;;7.93;7.22;;;;;;;30.86;58.04;99226.38;5029625;28;20678;-62
2022/09/03 11:06:23;;;;;;;8.10;7.38;;;;;;;31.01;56.95;99215.69;5029462;28;20197;-61
2022/09/03 11:08:58;;;;;;;7.80;7.20;;;;;;;31.15;56.12;99220.28;5030115;28;20207;-62
2022/09/03 11:11:31;;;;;;;7.80;7.25;;;;;;;31.14;56.71;99220.47;5033761;28;20673;-62
2022/09/03 11:14:06;;;;;;;9.10;8.20;;;;;;;30.99;57.40;99215.03;5033856;28;20789;-61
2022/09/03 11:16:38;;;;;;;8.80;8.10;;;;;;;30.92;57.88;99228.34;5033432;28;20192;-62
2022/09/03 11:19:09;;;;;;;7.70;7.30;;;;;;;31.01;58.39;99216.53;5033780;28;20201;-62
2022/09/03 11:21:40;;;;;;;8.35;7.65;;;;;;;30.89;58.75;99193.84;5033305;28;20417;-62
2022/09/03 11:24:12;;;;;;;8.15;7.45;;;;;;;31.31;58.86;99211.22;5033404;28;20193;-55
2022/09/03 11:26:42;;;;;;;7.45;7.00;;;;;;;31.29;57.61;99216.75;5032980;28;20197;-63
2022/09/03 11:29:15;;;;;;;7.90;7.40;;;;;;;31.05;57.49;99212.44;5033026;28;20736;-62
2022/09/03 11:31:58;;;;;;;7.68;7.15;;;;;;;30.92;57.49;99212.25;5033077;28;20235;-60
2022/09/03 11:34:32;;;;;;;8.45;7.82;;;;;;;31.11;57.97;99218.13;5033099;28;20619;-62
2022/09/03 11:37:17;;;;;;;8.27;7.45;;;;;;;31.01;57.69;99205.78;5033065;28;20656;-64
2022/09/03 11:39:45;;;;;;;7.40;6.90;;;;;;;31.04;57.58;99205.41;5033390;28;20577;-62
2022/09/03 11:42:26;;;;;;;9.27;7.40;;;;;;;30.89;58.08;99206.41;5032754;28;20193;-62
2022/09/03 11:44:53;;;;;;;7.13;6.57;;;;;;;30.77;57.93;99208.69;5032797;28;20292;-62